Nordic Philip — 5BZH2 — position and weather

sailwx.info

Track history (hours):
 
Tides and Currents Weather Stations Pressure Air Temp Water Temp Dewpoint Dewpoint Depression Visibility Wind Speed Wind Dir Waves Ship Positions

Nordic Philip

Last reported at 2015-Aug-31 06:33 UTC. Time now 2015-Aug-31 06:47 UTC.
Position N 53°33' E 009°52'.

Length 152 m; draft 7.8 m.

Type: Ship (hazmat cat A). MMSI: 212018000.

Date/timePositionNaut miles runAvg speedWind from/ knotsBaromVisibWave heightAir tempDewpointWater temp
2015-Aug-31 06:33N 53°33' E 009°52'1 1.2
2015-Aug-31 05:28N 53°32' E 009°55'0 0.0
2015-Aug-31 04:28N 53°32' E 009°55'6 6.8
2015-Aug-31 03:33N 53°34' E 009°44'1111.0
2015-Aug-31 02:33N 53°41' E 009°30'1514.7
2015-Aug-31 01:33N 53°52' E 009°15'1616.3
2015-Aug-31 00:34N 53°50' E 008°48'1716.8
2015-Aug-30 23:33N 53°59' E 008°23'1414.1
2015-Aug-30 22:33N 54°01' E 007°60'1414.1
2015-Aug-30 21:33N 54°08' E 007°38'1312.5
2015-Aug-30 20:33N 54°16' E 007°22'1414.1
2015-Aug-30 19:34N 54°30' E 007°17'1414.2
2015-Aug-30 18:33N 54°44' E 007°12'1414.1
2015-Aug-30 17:34N 54°57' E 007°05'1413.9
2015-Aug-30 16:33N 55°11' E 007°02'1414.1
2015-Aug-30 15:34N 55°25' E 007°02'1414.1
2015-Aug-30 14:34N 55°39' E 007°07'1414.1
2015-Aug-30 13:34N 55°53' E 007°13'12713.8
2015-Aug-30 04:25N 57°38' E 009°20'1314.9
2015-Aug-30 03:33N 57°44' E 009°42'1515.0
2015-Aug-30 02:32N 57°49' E 010°09'1414.5
2015-Aug-30 01:34N 57°51' E 010°35'1414.4
2015-Aug-30 00:34N 57°43' E 010°57'1514.9
2015-Aug-29 23:34N 57°33' E 011°17'1514.7
2015-Aug-29 22:34N 57°20' E 011°32'1514.9
2015-Aug-29 21:34N 57°06' E 011°41'1515.1
2015-Aug-29 20:33N 56°52' E 011°50'1413.7
2015-Aug-29 19:33N 56°38' E 011°46'1514.9
2015-Aug-29 18:33N 56°25' E 011°32'1515.0
2015-Aug-29 17:33N 56°12' E 011°18'2713.6
2015-Aug-29 15:33N 56°05' E 010°32'1110.3
2015-Aug-29 14:32N 56°09' E 010°14'0 0.0
2015-Aug-29 07:32N 56°09' E 010°14'7 6.7
2015-Aug-29 06:33N 56°07' E 010°26'5211.8
2015-Aug-29 02:09N 56°36' E 011°43'813.5
2015-Aug-29 01:33N 56°43' E 011°50'1312.8
2015-Aug-29 00:33N 56°56' E 011°45'1414.1
2015-Aug-28 23:33N 57°09' E 011°37'1414.0
2015-Aug-28 22:33N 57°22' E 011°28'1413.6
2015-Aug-28 21:33N 57°33' E 011°14'1413.7
2015-Aug-28 20:33N 57°46' E 011°07'1413.9
2015-Aug-28 19:33N 58°00' E 011°02'1413.8
2015-Aug-28 18:34N 58°14' E 010°57'1414.3
2015-Aug-28 17:33N 58°28' E 010°52'1413.8
2015-Aug-28 16:34N 58°41' E 010°47'1413.9
2015-Aug-28 15:33N 58°55' E 010°41'1010.4
2015-Aug-28 14:34N 59°05' E 010°44'1515.2
2015-Aug-28 13:33N 59°20' E 010°35'6 6.3
2015-Aug-28 12:33N 59°26' E 010°39'0 0.0
2015-Aug-28 11:33N 59°26' E 010°39'0 0.0
2015-Aug-28 10:33N 59°26' E 010°39'0 0.0
2015-Aug-28 09:33N 59°26' E 010°39'0 0.0
2015-Aug-28 08:33N 59°26' E 010°39'0 0.0
2015-Aug-28 07:33N 59°26' E 010°39'0 0.0
2015-Aug-28 06:33N 59°26' E 010°39'0 0.0
2015-Aug-28 05:33N 59°26' E 010°39'0 0.0
2015-Aug-28 04:33N 59°26' E 010°39'0 0.0
2015-Aug-28 03:33N 59°26' E 010°39'0 0.0
2015-Aug-28 02:33N 59°26' E 010°39'0 0.0
2015-Aug-28 01:33N 59°26' E 010°39'0 0.0
2015-Aug-28 00:33N 59°26' E 010°39'0 0.0
2015-Aug-27 23:33N 59°26' E 010°39'0 0.0
2015-Aug-27 22:33N 59°26' E 010°39'0 0.0
2015-Aug-27 21:33N 59°26' E 010°39'3 3.3
2015-Aug-27 20:33N 59°26' E 010°33'1211.5
2015-Aug-27 19:33N 59°37' E 010°25'5 0.2
2015-Aug-26 19:23N 59°42' E 010°21'810.1
2015-Aug-26 18:34N 59°33' E 010°25'1313.3
2015-Aug-26 17:34N 59°21' E 010°35'1716.9
2015-Aug-26 16:34N 59°04' E 010°36'1616.1
2015-Aug-26 15:34N 58°57' E 010°08'6 5.9
2015-Aug-26 14:30N 59°02' E 010°02'0 0.0
2015-Aug-26 13:30N 59°02' E 010°02'0 0.0
2015-Aug-26 12:24N 59°02' E 010°02'0 0.0
2015-Aug-26 11:15N 59°02' E 010°02'0 0.0
2015-Aug-26 09:30N 59°02' E 010°02'0 0.0
2015-Aug-25 23:26N 59°02' E 010°02'1011.8
2015-Aug-25 22:34N 58°58' E 010°21'1515.0
2015-Aug-25 21:34N 59°01' E 010°50'10 9.8
2015-Aug-25 20:33N 59°10' E 010°57'0 0.0
2015-Aug-25 10:31N 59°11' E 010°57'0 0.0
2015-Aug-25 09:31N 59°11' E 010°57'5 4.8
2015-Aug-25 08:34N 59°06' E 010°58'8 7.8
2015-Aug-25 07:33N 59°02' E 010°46'1413.6
2015-Aug-25 06:34N 58°51' E 010°30'1414.0
2015-Aug-25 05:33N 58°40' E 010°15'1414.1
2015-Aug-25 04:33N 58°28' E 009°60'1414.0
2015-Aug-25 03:32N 58°16' E 009°44'16814.0
2015-Aug-24 15:33N 55°46' E 007°22'1716.9
2015-Aug-24 14:33N 55°30' E 007°20'1717.4
2015-Aug-24 13:33N 55°13' E 007°23'1717.4
2015-Aug-24 12:33N 54°55' E 007°27'1817.5
2015-Aug-24 11:33N 54°38' E 007°31'1817.8
2015-Aug-24 10:33N 54°20' E 007°34'1817.6
2015-Aug-24 09:33N 54°06' E 007°52'1615.9
2015-Aug-24 08:33N 53°60' E 008°17'1717.5
2015-Aug-24 07:34N 53°52' E 008°44'1615.6
2015-Aug-24 06:33N 53°53' E 009°10'1413.9
2015-Aug-24 05:33N 53°43' E 009°28'1413.8
2015-Aug-24 04:33N 53°34' E 009°44'6 6.4
2015-Aug-24 03:33N 53°32' E 009°55'0 0.0
2015-Aug-24 02:33N 53°32' E 009°55'0 0.0
2015-Aug-24 01:33N 53°32' E 009°55'0 0.0
2015-Aug-24 00:33N 53°32' E 009°55'9 9.2
2015-Aug-23 23:34N 53°34' E 009°40'1414.4
2015-Aug-23 22:33N 53°45' E 009°24'1312.5
2015-Aug-23 21:33N 53°53' E 009°07'1313.1
2015-Aug-23 20:33N 53°51' E 008°45'1212.2
2015-Aug-23 19:34N 53°58' E 008°28'1313.1
2015-Aug-23 18:33N 53°59' E 008°06'9 8.5
2015-Aug-23 17:33N 53°52' E 007°58'1515.0
2015-Aug-23 16:34N 53°43' E 008°19'1010.3
2015-Aug-23 15:34N 53°35' E 008°31'0 0.0
2015-Aug-23 14:31N 53°35' E 008°31'0 0.0
2015-Aug-23 13:33N 53°35' E 008°31'0 0.0
2015-Aug-23 12:31N 53°35' E 008°31'0 0.0
2015-Aug-23 11:34N 53°35' E 008°31'0 0.0
2015-Aug-23 10:34N 53°35' E 008°31'0 0.0
2015-Aug-23 09:34N 53°35' E 008°31'0 0.0
2015-Aug-23 08:34N 53°35' E 008°31'0 0.0
2015-Aug-23 07:34N 53°35' E 008°31'0 0.0
2015-Aug-23 06:34N 53°35' E 008°31'0 0.0
2015-Aug-23 05:34N 53°35' E 008°31'0 0.0
2015-Aug-23 04:34N 53°35' E 008°31'0 0.0
2015-Aug-23 03:34N 53°35' E 008°31'0 0.0
2015-Aug-23 02:33N 53°35' E 008°31'0 0.0
2015-Aug-23 01:34N 53°35' E 008°31'0 0.0
2015-Aug-23 00:34N 53°35' E 008°31'0 0.0
2015-Aug-22 23:34N 53°35' E 008°31'0 0.0
2015-Aug-22 22:25N 53°35' E 008°31'0 0.0
2015-Aug-22 21:34N 53°35' E 008°31'0 0.0
2015-Aug-22 20:34N 53°35' E 008°31'0 0.0
2015-Aug-22 19:30N 53°35' E 008°31'0 0.0
2015-Aug-22 18:31N 53°35' E 008°31'0 0.3
2015-Aug-22 17:34N 53°36' E 008°31'1211.7
2015-Aug-22 16:33N 53°43' E 008°16'1414.4
2015-Aug-22 15:33N 53°52' E 007°56'4 2.9
2015-Aug-22 14:18N 53°54' E 007°52'0 0.0
2015-Aug-22 13:33N 53°54' E 007°52'3 3.3
2015-Aug-22 12:32N 53°56' E 007°47'1414.5
2015-Aug-22 11:33N 54°06' E 007°30'1212.0
2015-Aug-22 10:34N 54°17' E 007°22'1212.0
2015-Aug-22 09:34N 54°29' E 007°17'1211.9
2015-Aug-22 08:33N 54°40' E 007°12'1211.9
2015-Aug-22 07:33N 54°52' E 007°07'1211.9
2015-Aug-22 06:33N 55°03' E 007°04'1211.8
2015-Aug-22 05:33N 55°15' E 007°02'1211.9
2015-Aug-22 04:33N 55°27' E 007°02'1211.9
2015-Aug-22 03:33N 55°39' E 007°07'1211.8
2015-Aug-22 02:33N 55°50' E 007°12'11611.6
2015-Aug-21 16:32N 57°34' E 008°47'1110.4
2015-Aug-21 15:31N 57°41' E 009°01'1 0.7
2015-Aug-21 14:33N 57°40' E 009°01'1 0.7
2015-Aug-21 13:22N 57°39' E 009°01'1 0.8
2015-Aug-21 12:33N 57°39' E 009°01'1 0.9
2015-Aug-21 11:33N 57°38' E 009°00'1 1.1
2015-Aug-21 10:33N 57°37' E 008°60'1 1.4
2015-Aug-21 09:33N 57°35' E 008°60'1 1.3
2015-Aug-21 08:32N 57°34' E 008°59'6 6.5
2015-Aug-21 07:33N 57°35' E 009°11'1111.1
2015-Aug-21 06:33N 57°41' E 009°29'  
Track history (hours):
 
Tides and Currents Weather Stations Pressure Air Temp Water Temp Dewpoint Dewpoint Depression Visibility Wind Speed Wind Dir Waves Ship Positions

Nordic Philip

Last reported at 2015-Aug-31 06:33 UTC. Time now 2015-Aug-31 06:47 UTC.
Position N 53°33' E 009°52'.

Length 152 m; draft 7.8 m.

Type: Ship (hazmat cat A). MMSI: 212018000.

Date/timePositionNaut miles runAvg speedWind from/ knotsBaromVisibWave heightAir tempDewpointWater temp
2015-Aug-31 06:33N 53°33' E 009°52'1 1.2
2015-Aug-31 05:28N 53°32' E 009°55'0 0.0
2015-Aug-31 04:28N 53°32' E 009°55'6 6.8
2015-Aug-31 03:33N 53°34' E 009°44'1111.0
2015-Aug-31 02:33N 53°41' E 009°30'1514.7
2015-Aug-31 01:33N 53°52' E 009°15'1616.3
2015-Aug-31 00:34N 53°50' E 008°48'1716.8
2015-Aug-30 23:33N 53°59' E 008°23'1414.1
2015-Aug-30 22:33N 54°01' E 007°60'1414.1
2015-Aug-30 21:33N 54°08' E 007°38'1312.5
2015-Aug-30 20:33N 54°16' E 007°22'1414.1
2015-Aug-30 19:34N 54°30' E 007°17'1414.2
2015-Aug-30 18:33N 54°44' E 007°12'1414.1
2015-Aug-30 17:34N 54°57' E 007°05'1413.9
2015-Aug-30 16:33N 55°11' E 007°02'1414.1
2015-Aug-30 15:34N 55°25' E 007°02'1414.1
2015-Aug-30 14:34N 55°39' E 007°07'1414.1
2015-Aug-30 13:34N 55°53' E 007°13'12713.8
2015-Aug-30 04:25N 57°38' E 009°20'1314.9
2015-Aug-30 03:33N 57°44' E 009°42'1515.0
2015-Aug-30 02:32N 57°49' E 010°09'1414.5
2015-Aug-30 01:34N 57°51' E 010°35'1414.4
2015-Aug-30 00:34N 57°43' E 010°57'1514.9
2015-Aug-29 23:34N 57°33' E 011°17'1514.7
2015-Aug-29 22:34N 57°20' E 011°32'1514.9
2015-Aug-29 21:34N 57°06' E 011°41'1515.1
2015-Aug-29 20:33N 56°52' E 011°50'1413.7
2015-Aug-29 19:33N 56°38' E 011°46'1514.9
2015-Aug-29 18:33N 56°25' E 011°32'1515.0
2015-Aug-29 17:33N 56°12' E 011°18'2713.6
2015-Aug-29 15:33N 56°05' E 010°32'1110.3
2015-Aug-29 14:32N 56°09' E 010°14'0 0.0
2015-Aug-29 07:32N 56°09' E 010°14'7 6.7
2015-Aug-29 06:33N 56°07' E 010°26'5211.8
2015-Aug-29 02:09N 56°36' E 011°43'813.5
2015-Aug-29 01:33N 56°43' E 011°50'1312.8
2015-Aug-29 00:33N 56°56' E 011°45'1414.1
2015-Aug-28 23:33N 57°09' E 011°37'1414.0
2015-Aug-28 22:33N 57°22' E 011°28'1413.6
2015-Aug-28 21:33N 57°33' E 011°14'1413.7
2015-Aug-28 20:33N 57°46' E 011°07'1413.9
2015-Aug-28 19:33N 58°00' E 011°02'1413.8
2015-Aug-28 18:34N 58°14' E 010°57'1414.3
2015-Aug-28 17:33N 58°28' E 010°52'1413.8
2015-Aug-28 16:34N 58°41' E 010°47'1413.9
2015-Aug-28 15:33N 58°55' E 010°41'1010.4
2015-Aug-28 14:34N 59°05' E 010°44'1515.2
2015-Aug-28 13:33N 59°20' E 010°35'6 6.3
2015-Aug-28 12:33N 59°26' E 010°39'0 0.0
2015-Aug-28 11:33N 59°26' E 010°39'0 0.0
2015-Aug-28 10:33N 59°26' E 010°39'0 0.0
2015-Aug-28 09:33N 59°26' E 010°39'0 0.0
2015-Aug-28 08:33N 59°26' E 010°39'0 0.0
2015-Aug-28 07:33N 59°26' E 010°39'0 0.0
2015-Aug-28 06:33N 59°26' E 010°39'0 0.0
2015-Aug-28 05:33N 59°26' E 010°39'0 0.0
2015-Aug-28 04:33N 59°26' E 010°39'0 0.0
2015-Aug-28 03:33N 59°26' E 010°39'0 0.0
2015-Aug-28 02:33N 59°26' E 010°39'0 0.0
2015-Aug-28 01:33N 59°26' E 010°39'0 0.0
2015-Aug-28 00:33N 59°26' E 010°39'0 0.0
2015-Aug-27 23:33N 59°26' E 010°39'0 0.0
2015-Aug-27 22:33N 59°26' E 010°39'0 0.0
2015-Aug-27 21:33N 59°26' E 010°39'3 3.3
2015-Aug-27 20:33N 59°26' E 010°33'1211.5
2015-Aug-27 19:33N 59°37' E 010°25'5 0.2
2015-Aug-26 19:23N 59°42' E 010°21'810.1
2015-Aug-26 18:34N 59°33' E 010°25'1313.3
2015-Aug-26 17:34N 59°21' E 010°35'1716.9
2015-Aug-26 16:34N 59°04' E 010°36'1616.1
2015-Aug-26 15:34N 58°57' E 010°08'6 5.9
2015-Aug-26 14:30N 59°02' E 010°02'0 0.0
2015-Aug-26 13:30N 59°02' E 010°02'0 0.0
2015-Aug-26 12:24N 59°02' E 010°02'0 0.0
2015-Aug-26 11:15N 59°02' E 010°02'0 0.0
2015-Aug-26 09:30N 59°02' E 010°02'0 0.0
2015-Aug-25 23:26N 59°02' E 010°02'1011.8
2015-Aug-25 22:34N 58°58' E 010°21'1515.0
2015-Aug-25 21:34N 59°01' E 010°50'10 9.8
2015-Aug-25 20:33N 59°10' E 010°57'0 0.0
2015-Aug-25 10:31N 59°11' E 010°57'0 0.0
2015-Aug-25 09:31N 59°11' E 010°57'5 4.8
2015-Aug-25 08:34N 59°06' E 010°58'8 7.8
2015-Aug-25 07:33N 59°02' E 010°46'1413.6
2015-Aug-25 06:34N 58°51' E 010°30'1414.0
2015-Aug-25 05:33N 58°40' E 010°15'1414.1
2015-Aug-25 04:33N 58°28' E 009°60'1414.0
2015-Aug-25 03:32N 58°16' E 009°44'16814.0
2015-Aug-24 15:33N 55°46' E 007°22'1716.9
2015-Aug-24 14:33N 55°30' E 007°20'1717.4
2015-Aug-24 13:33N 55°13' E 007°23'1717.4
2015-Aug-24 12:33N 54°55' E 007°27'1817.5
2015-Aug-24 11:33N 54°38' E 007°31'1817.8
2015-Aug-24 10:33N 54°20' E 007°34'1817.6
2015-Aug-24 09:33N 54°06' E 007°52'1615.9
2015-Aug-24 08:33N 53°60' E 008°17'1717.5
2015-Aug-24 07:34N 53°52' E 008°44'1615.6
2015-Aug-24 06:33N 53°53' E 009°10'1413.9
2015-Aug-24 05:33N 53°43' E 009°28'1413.8
2015-Aug-24 04:33N 53°34' E 009°44'6 6.4
2015-Aug-24 03:33N 53°32' E 009°55'0 0.0
2015-Aug-24 02:33N 53°32' E 009°55'0 0.0
2015-Aug-24 01:33N 53°32' E 009°55'0 0.0
2015-Aug-24 00:33N 53°32' E 009°55'9 9.2
2015-Aug-23 23:34N 53°34' E 009°40'1414.4
2015-Aug-23 22:33N 53°45' E 009°24'1312.5
2015-Aug-23 21:33N 53°53' E 009°07'1313.1
2015-Aug-23 20:33N 53°51' E 008°45'1212.2
2015-Aug-23 19:34N 53°58' E 008°28'1313.1
2015-Aug-23 18:33N 53°59' E 008°06'9 8.5
2015-Aug-23 17:33N 53°52' E 007°58'1515.0
2015-Aug-23 16:34N 53°43' E 008°19'1010.3
2015-Aug-23 15:34N 53°35' E 008°31'0 0.0
2015-Aug-23 14:31N 53°35' E 008°31'0 0.0
2015-Aug-23 13:33N 53°35' E 008°31'0 0.0
2015-Aug-23 12:31N 53°35' E 008°31'0 0.0
2015-Aug-23 11:34N 53°35' E 008°31'0 0.0
2015-Aug-23 10:34N 53°35' E 008°31'0 0.0
2015-Aug-23 09:34N 53°35' E 008°31'0 0.0
2015-Aug-23 08:34N 53°35' E 008°31'0 0.0
2015-Aug-23 07:34N 53°35' E 008°31'0 0.0
2015-Aug-23 06:34N 53°35' E 008°31'0 0.0
2015-Aug-23 05:34N 53°35' E 008°31'0 0.0
2015-Aug-23 04:34N 53°35' E 008°31'0 0.0
2015-Aug-23 03:34N 53°35' E 008°31'0 0.0
2015-Aug-23 02:33N 53°35' E 008°31'0 0.0
2015-Aug-23 01:34N 53°35' E 008°31'0 0.0
2015-Aug-23 00:34N 53°35' E 008°31'0 0.0
2015-Aug-22 23:34N 53°35' E 008°31'0 0.0
2015-Aug-22 22:25N 53°35' E 008°31'0 0.0
2015-Aug-22 21:34N 53°35' E 008°31'0 0.0
2015-Aug-22 20:34N 53°35' E 008°31'0 0.0
2015-Aug-22 19:30N 53°35' E 008°31'0 0.0
2015-Aug-22 18:31N 53°35' E 008°31'0 0.3
2015-Aug-22 17:34N 53°36' E 008°31'1211.7
2015-Aug-22 16:33N 53°43' E 008°16'1414.4
2015-Aug-22 15:33N 53°52' E 007°56'4 2.9
2015-Aug-22 14:18N 53°54' E 007°52'0 0.0
2015-Aug-22 13:33N 53°54' E 007°52'3 3.3
2015-Aug-22 12:32N 53°56' E 007°47'1414.5
2015-Aug-22 11:33N 54°06' E 007°30'1212.0
2015-Aug-22 10:34N 54°17' E 007°22'1212.0
2015-Aug-22 09:34N 54°29' E 007°17'1211.9
2015-Aug-22 08:33N 54°40' E 007°12'1211.9
2015-Aug-22 07:33N 54°52' E 007°07'1211.9
2015-Aug-22 06:33N 55°03' E 007°04'1211.8
2015-Aug-22 05:33N 55°15' E 007°02'1211.9
2015-Aug-22 04:33N 55°27' E 007°02'1211.9
2015-Aug-22 03:33N 55°39' E 007°07'1211.8
2015-Aug-22 02:33N 55°50' E 007°12'11611.6
2015-Aug-21 16:32N 57°34' E 008°47'1110.4
2015-Aug-21 15:31N 57°41' E 009°01'1 0.7
2015-Aug-21 14:33N 57°40' E 009°01'1 0.7
2015-Aug-21 13:22N 57°39' E 009°01'1 0.8
2015-Aug-21 12:33N 57°39' E 009°01'1 0.9
2015-Aug-21 11:33N 57°38' E 009°00'1 1.1
2015-Aug-21 10:33N 57°37' E 008°60'1 1.4
2015-Aug-21 09:33N 57°35' E 008°60'1 1.3
2015-Aug-21 08:32N 57°34' E 008°59'6 6.5
2015-Aug-21 07:33N 57°35' E 009°11'1111.1
2015-Aug-21 06:33N 57°41' E 009°29'  

Dump ship's entire track history